createdAt,value
2018-02-17T00:00:55.111Z,14.35
2018-02-17T00:03:22.644Z,14.38
2018-02-17T00:05:50.151Z,14.68
2018-02-17T00:08:18.441Z,15.65
2018-02-17T00:10:45.974Z,14.20
2018-02-17T00:13:13.463Z,13.85
2018-02-17T00:15:40.966Z,14.15
2018-02-17T00:18:08.523Z,14.80
2018-02-17T00:20:36.030Z,15.15
2018-02-17T00:23:04.304Z,15.45
2018-02-17T00:25:32.582Z,15.57
2018-02-17T00:28:00.890Z,15.15
2018-02-17T00:30:28.393Z,16.23
2018-02-17T00:32:55.941Z,16.35
2018-02-17T00:35:23.452Z,15.85
2018-02-17T00:37:51.743Z,16.05
2018-02-17T00:40:19.251Z,17.00
2018-02-17T00:42:46.769Z,15.93
2018-02-17T00:45:14.265Z,18.12
2018-02-17T00:47:41.795Z,16.33
2018-02-17T00:50:10.093Z,17.70
2018-02-17T00:52:37.612Z,19.27
2018-02-17T00:55:05.909Z,18.37
2018-02-17T00:57:33.478Z,19.35
2018-02-17T01:00:01.738Z,19.55
2018-02-17T01:02:29.246Z,19.92
2018-02-17T01:04:56.747Z,19.25
2018-02-17T01:07:25.045Z,20.23
2018-02-17T01:09:52.543Z,20.50
2018-02-17T01:12:20.049Z,19.10
2018-02-17T01:14:47.592Z,20.60
2018-02-17T01:17:15.873Z,20.35
2018-02-17T01:19:44.176Z,20.60
2018-02-17T01:22:11.698Z,21.42
2018-02-17T01:24:39.979Z,21.37
2018-02-17T01:27:08.268Z,22.05
2018-02-17T01:29:35.771Z,22.02
2018-02-17T01:32:03.291Z,20.80
2018-02-17T01:34:30.799Z,23.75
2018-02-17T01:36:58.311Z,22.42
2018-02-17T01:39:25.854Z,23.27
2018-02-17T01:41:54.126Z,22.95
2018-02-17T01:44:22.454Z,24.80
2018-02-17T01:46:49.979Z,24.60
2018-02-17T01:49:18.282Z,24.35
2018-02-17T01:51:45.805Z,25.37
2018-02-17T01:54:14.075Z,24.75
2018-02-17T01:56:42.369Z,25.40
2018-02-17T01:59:09.890Z,26.65
2018-02-17T02:01:37.384Z,26.62
2018-02-17T02:04:04.900Z,26.48
2018-02-17T02:06:32.465Z,27.60
2018-02-17T02:08:59.963Z,27.67
2018-02-17T02:11:27.466Z,26.65
2018-02-17T02:13:54.985Z,25.50
2018-02-17T02:16:22.526Z,26.80
2018-02-17T02:18:50.797Z,27.30
2018-02-17T02:21:18.364Z,26.95
2018-02-17T02:23:45.893Z,25.98
2018-02-17T02:26:13.399Z,26.65
2018-02-17T02:28:40.926Z,27.58
2018-02-17T02:31:08.421Z,27.08
2018-02-17T02:33:35.933Z,27.45
2018-02-17T02:36:03.435Z,27.33
2018-02-17T02:38:30.947Z,26.55
2018-02-17T02:40:58.465Z,28.40
2018-02-17T02:43:25.992Z,25.77
2018-02-17T02:45:54.300Z,28.30
2018-02-17T02:48:21.793Z,26.45
2018-02-17T02:50:49.303Z,28.05
2018-02-17T02:53:16.829Z,28.12
2018-02-17T02:55:44.316Z,28.55
2018-02-17T02:58:12.586Z,27.60
2018-02-17T03:00:40.150Z,26.62
2018-02-17T03:03:07.671Z,27.95
2018-02-17T03:05:35.237Z,26.20
2018-02-17T03:08:02.724Z,28.00
2018-02-17T03:10:31.024Z,26.80
2018-02-17T03:12:58.569Z,27.75
2018-02-17T03:15:26.075Z,27.90
2018-02-17T03:17:53.586Z,27.20
2018-02-17T03:20:21.132Z,29.20
2018-02-17T03:22:49.393Z,28.75
2018-02-17T03:25:16.932Z,28.70
2018-02-17T03:27:44.452Z,27.70
2018-02-17T03:30:11.949Z,27.17
2018-02-17T03:32:39.487Z,26.33
2018-02-17T03:35:06.998Z,27.62
2018-02-17T03:37:35.293Z,28.90
2018-02-17T03:40:02.791Z,28.33
2018-02-17T03:42:30.295Z,27.20
2018-02-17T03:44:58.604Z,28.20
2018-02-17T03:47:26.180Z,28.98
2018-02-17T03:49:53.688Z,28.90
2018-02-17T03:52:21.971Z,29.33
2018-02-17T03:54:49.482Z,29.50
2018-02-17T03:57:16.990Z,30.25
2018-02-17T03:59:45.251Z,27.80
2018-02-17T04:02:13.536Z,29.20
2018-02-17T04:04:41.792Z,30.62
2018-02-17T04:07:10.061Z,29.80
2018-02-17T04:09:37.589Z,31.67
2018-02-17T04:12:05.124Z,31.17
2018-02-17T04:14:32.635Z,29.15
2018-02-17T04:17:00.123Z,28.65
2018-02-17T04:19:27.638Z,29.50
2018-02-17T04:21:55.166Z,28.98
2018-02-17T04:24:22.666Z,28.83
2018-02-17T04:26:50.272Z,29.10
2018-02-17T04:29:17.807Z,27.70
2018-02-17T04:31:46.111Z,27.35
2018-02-17T04:34:13.639Z,27.20
2018-02-17T04:36:41.930Z,27.85
2018-02-17T04:39:09.446Z,30.12
2018-02-17T04:41:53.663Z,29.55
2018-02-17T04:44:25.798Z,29.52
2018-02-17T04:46:59.789Z,29.95
2018-02-17T04:49:31.787Z,29.27
2018-02-17T04:55:03.742Z,30.70
2018-02-17T04:57:47.690Z,31.23
2018-02-17T05:00:19.660Z,31.55
2018-02-17T05:02:58.898Z,30.92
2018-02-17T05:05:26.415Z,30.58
2018-02-17T05:07:55.576Z,29.40
2018-02-17T05:10:23.083Z,29.40
2018-02-17T05:12:51.370Z,30.70
2018-02-17T05:15:19.641Z,30.58
2018-02-17T05:18:06.804Z,29.73
2018-02-17T05:20:34.329Z,31.05
2018-02-17T05:23:01.819Z,30.02
2018-02-17T05:25:29.829Z,30.10
2018-02-17T05:27:59.157Z,31.58
2018-02-17T05:30:39.442Z,29.70
2018-02-17T05:33:12.687Z,28.67
2018-02-17T05:35:46.648Z,32.42
2018-02-17T05:38:14.201Z,28.58
2018-02-17T05:40:45.386Z,30.42
2018-02-17T05:43:12.951Z,29.60
2018-02-17T05:45:40.462Z,28.60
2018-02-17T05:48:07.959Z,28.25
2018-02-17T05:50:35.506Z,28.42
2018-02-17T05:53:03.017Z,29.23
2018-02-17T05:55:30.555Z,27.73
2018-02-17T05:57:58.837Z,27.98
2018-02-17T06:00:27.111Z,27.90
2018-02-17T06:02:55.382Z,28.92
2018-02-17T06:05:23.684Z,29.05
2018-02-17T06:07:51.182Z,28.45
2018-02-17T06:10:18.728Z,26.90
2018-02-17T06:12:46.231Z,28.62
2018-02-17T06:15:14.514Z,28.50
2018-02-17T06:17:42.775Z,27.30
2018-02-17T06:20:11.051Z,29.80
2018-02-17T06:22:38.552Z,27.60
2018-02-17T06:25:06.063Z,28.45
2018-02-17T06:27:33.554Z,28.50
2018-02-17T06:30:01.063Z,28.87
2018-02-17T06:32:28.587Z,29.42
2018-02-17T06:34:56.084Z,27.98
2018-02-17T06:37:23.597Z,26.27
2018-02-17T06:39:51.114Z,27.45
2018-02-17T06:42:19.395Z,28.80
2018-02-17T06:44:47.706Z,28.30
2018-02-17T06:47:15.223Z,28.20
2018-02-17T06:49:43.510Z,27.85
2018-02-17T06:52:11.792Z,24.60
2018-02-17T06:54:40.085Z,26.98
2018-02-17T06:57:07.614Z,26.58
2018-02-17T06:59:35.909Z,27.17
2018-02-17T07:02:03.452Z,26.77
2018-02-17T07:04:31.744Z,27.17
2018-02-17T07:07:00.046Z,26.15
2018-02-17T07:09:27.566Z,27.50
2018-02-17T07:11:55.849Z,26.00
2018-02-17T07:14:24.136Z,25.55
2018-02-17T07:16:51.642Z,24.30
2018-02-17T07:19:19.143Z,25.73
2018-02-17T07:21:47.454Z,25.60
2018-02-17T07:24:14.979Z,24.08
2018-02-17T07:26:43.292Z,24.58
2018-02-17T07:29:10.815Z,25.42
2018-02-17T07:31:39.941Z,22.80
2018-02-17T07:34:07.470Z,23.52
2018-02-17T07:36:34.978Z,24.27
2018-02-17T07:39:02.535Z,24.00
2018-02-17T07:41:30.026Z,24.85
2018-02-17T07:43:58.360Z,25.37
2018-02-17T07:46:25.858Z,24.00
2018-02-17T07:48:53.406Z,24.85
2018-02-17T07:51:20.949Z,25.55
2018-02-17T07:53:48.434Z,24.50
2018-02-17T07:56:16.728Z,24.45
2018-02-17T07:58:44.999Z,25.23
2018-02-17T08:01:13.335Z,25.62
2018-02-17T08:03:40.824Z,24.15
2018-02-17T08:06:09.108Z,24.45
2018-02-17T08:08:37.436Z,24.52
2018-02-17T08:11:04.957Z,27.05
2018-02-17T08:13:33.259Z,25.80
2018-02-17T08:16:00.767Z,27.45
2018-02-17T08:18:28.292Z,26.12
2018-02-17T08:20:55.808Z,26.10
2018-02-17T08:23:23.339Z,26.92
2018-02-17T08:25:50.876Z,26.17
2018-02-17T08:28:18.389Z,27.15
2018-02-17T08:30:45.923Z,27.45
2018-02-17T08:33:14.201Z,27.00
2018-02-17T08:35:42.476Z,25.80
2018-02-17T08:38:10.770Z,26.27
2018-02-17T08:40:39.158Z,25.40
2018-02-17T08:43:06.667Z,25.52
2018-02-17T08:45:34.198Z,25.55
2018-02-17T08:48:04.656Z,26.52
2018-02-17T08:50:32.163Z,26.92
2018-02-17T08:53:00.458Z,26.62
2018-02-17T08:55:28.004Z,24.12
2018-02-17T08:57:55.526Z,25.77
2018-02-17T09:00:23.817Z,26.23
2018-02-17T09:02:52.107Z,26.20
2018-02-17T09:05:19.620Z,26.02
2018-02-17T09:07:47.118Z,25.37
2018-02-17T09:10:14.648Z,23.52
2018-02-17T09:12:42.150Z,25.37
2018-02-17T09:15:09.688Z,24.87
2018-02-17T09:17:37.967Z,23.60
2018-02-17T09:20:06.238Z,23.00
2018-02-17T09:22:34.554Z,23.98
2018-02-17T09:25:02.841Z,23.90
2018-02-17T09:27:30.372Z,22.60
2018-02-17T09:29:57.916Z,22.60
2018-02-17T09:32:26.181Z,21.90
2018-02-17T09:34:54.502Z,22.55
2018-02-17T09:37:22.450Z,21.70
2018-02-17T09:39:50.705Z,21.00
2018-02-17T09:42:18.974Z,21.02
2018-02-17T09:44:48.010Z,20.23
2018-02-17T09:47:15.569Z,20.75
2018-02-17T09:49:43.304Z,20.60
2018-02-17T09:52:11.547Z,19.15
2018-02-17T09:54:39.424Z,19.42
2018-02-17T09:57:07.007Z,20.10
2018-02-17T09:59:36.469Z,17.77
2018-02-17T10:02:04.805Z,19.00
2018-02-17T10:04:34.058Z,17.62
2018-02-17T10:07:01.613Z,19.87
2018-02-17T10:09:29.159Z,17.60
2018-02-17T10:11:57.212Z,19.62
2018-02-17T10:14:24.759Z,20.15
2018-02-17T10:16:53.082Z,18.25
2018-02-17T10:19:20.615Z,15.95
2018-02-17T10:21:48.133Z,15.98
2018-02-17T10:24:15.664Z,16.27
2018-02-17T10:26:43.214Z,15.63
2018-02-17T10:29:12.899Z,15.20
2018-02-17T10:31:41.219Z,15.30
2018-02-17T10:34:10.111Z,14.13
2018-02-17T10:36:38.437Z,13.75
2018-02-17T10:39:06.922Z,15.95
2018-02-17T10:41:34.434Z,14.75
2018-02-17T10:44:02.785Z,15.00
2018-02-17T10:46:30.311Z,15.10
2018-02-17T10:48:57.820Z,14.95
2018-02-17T10:51:26.136Z,13.30
2018-02-17T10:53:53.652Z,13.48
2018-02-17T10:56:22.007Z,12.55
2018-02-17T10:58:49.565Z,14.43
2018-02-17T11:01:17.111Z,13.10
2018-02-17T11:03:44.647Z,13.82
2018-02-17T11:06:12.163Z,14.00
2018-02-17T11:08:39.705Z,12.88
2018-02-17T11:11:07.204Z,12.40
2018-02-17T11:13:35.498Z,13.50
2018-02-17T11:16:03.020Z,13.52
2018-02-17T11:18:31.296Z,13.27
2018-02-17T11:20:59.587Z,13.38
2018-02-17T11:23:27.864Z,13.30
2018-02-17T11:25:56.128Z,12.20
2018-02-17T11:28:24.426Z,15.43
2018-02-17T11:30:51.963Z,15.13
2018-02-17T11:33:20.283Z,16.05
2018-02-17T11:35:47.839Z,15.75
2018-02-17T11:38:15.336Z,16.90
2018-02-17T11:40:42.870Z,15.95
2018-02-17T11:43:10.387Z,16.17
2018-02-17T11:45:38.679Z,16.45
2018-02-17T11:48:06.200Z,14.48
2018-02-17T11:50:34.501Z,15.43
2018-02-17T11:53:02.036Z,15.88
2018-02-17T11:55:29.576Z,14.48
2018-02-17T11:57:57.098Z,14.18
2018-02-17T12:00:24.659Z,14.55
2018-02-17T12:02:52.199Z,16.90
2018-02-17T12:05:19.740Z,15.05
2018-02-17T12:07:48.061Z,14.40
2018-02-17T12:10:15.588Z,15.15
2018-02-17T12:12:43.881Z,16.12
2018-02-17T12:15:11.405Z,15.30
2018-02-17T12:17:39.716Z,16.48
2018-02-17T12:20:07.228Z,16.98
2018-02-17T12:22:34.804Z,19.27
2018-02-17T12:25:02.480Z,17.15
2018-02-17T12:27:30.083Z,18.45
2018-02-17T12:29:57.612Z,18.40
2018-02-17T12:32:25.140Z,19.00
2018-02-17T12:34:52.825Z,17.50
2018-02-17T12:37:20.469Z,17.33
2018-02-17T12:39:48.817Z,17.70
2018-02-17T12:42:16.280Z,17.80
2018-02-17T12:44:43.847Z,16.42
2018-02-17T12:47:11.606Z,16.90
2018-02-17T12:49:39.168Z,16.92
2018-02-17T12:52:06.684Z,16.55
2018-02-17T12:54:34.260Z,15.88
2018-02-17T12:57:01.976Z,16.35
2018-02-17T12:59:29.513Z,16.90
2018-02-17T13:01:57.038Z,16.23
2018-02-17T13:04:24.590Z,16.25
2018-02-17T13:06:52.228Z,15.15
2018-02-17T13:09:19.769Z,14.50
2018-02-17T13:11:48.067Z,14.73
2018-02-17T13:14:15.585Z,15.18
2018-02-17T13:16:43.151Z,14.98
2018-02-17T13:19:10.848Z,14.82
2018-02-17T13:21:38.394Z,15.50
2018-02-17T13:24:06.657Z,16.92
2018-02-17T13:26:34.940Z,15.77
2018-02-17T13:29:03.302Z,16.40
2018-02-17T13:31:30.823Z,15.63
2018-02-17T13:33:58.353Z,16.15
2018-02-17T13:36:25.859Z,15.85
2018-02-17T13:38:53.412Z,15.43
2018-02-17T13:41:20.952Z,15.73
2018-02-17T13:43:48.485Z,15.25
2018-02-17T13:46:16.003Z,14.57
2018-02-17T13:48:43.518Z,15.27
2018-02-17T13:51:11.827Z,14.93
2018-02-17T13:53:39.335Z,16.27
2018-02-17T13:56:06.844Z,15.38
2018-02-17T13:58:34.428Z,15.38
2018-02-17T14:01:01.946Z,15.60
2018-02-17T14:03:29.500Z,14.45
2018-02-17T14:05:57.030Z,14.05
2018-02-17T14:08:24.536Z,14.18
2018-02-17T14:10:52.085Z,13.30
2018-02-17T14:13:19.612Z,14.02
2018-02-17T14:15:47.142Z,14.15
2018-02-17T14:18:14.686Z,14.10
2018-02-17T14:20:42.220Z,14.55
2018-02-17T14:23:09.754Z,16.05
2018-02-17T14:25:37.275Z,15.68
2018-02-17T14:28:05.612Z,15.50
2018-02-17T14:30:33.131Z,17.17
2018-02-17T14:33:00.701Z,15.80
2018-02-17T14:35:30.278Z,15.65
2018-02-17T14:37:57.845Z,16.60
2018-02-17T14:40:26.121Z,18.02
2018-02-17T14:42:54.437Z,18.60
2018-02-17T14:45:21.939Z,20.10
2018-02-17T14:47:49.459Z,17.75
2018-02-17T14:50:16.984Z,19.52
2018-02-17T14:52:44.548Z,19.20
2018-02-17T14:55:12.081Z,21.23
2018-02-17T14:57:40.686Z,21.85
2018-02-17T15:00:08.999Z,21.10
2018-02-17T15:02:36.519Z,22.30
2018-02-17T15:05:05.964Z,20.45
2018-02-17T15:07:33.508Z,20.83
2018-02-17T15:10:01.022Z,20.60
2018-02-17T15:12:28.675Z,21.20
2018-02-17T15:14:56.213Z,22.40
2018-02-17T15:20:42.209Z,21.65
2018-02-17T15:23:09.793Z,23.67
2018-02-17T15:25:37.354Z,22.75
2018-02-17T15:28:04.862Z,22.90
2018-02-17T15:30:32.417Z,23.00
2018-02-17T15:33:00.161Z,23.38
2018-02-17T15:35:28.443Z,24.25
2018-02-17T15:37:59.083Z,24.58
2018-02-17T15:40:27.498Z,25.23
2018-02-17T15:42:55.019Z,26.67
2018-02-17T15:45:23.310Z,25.52
2018-02-17T15:47:50.860Z,26.08
2018-02-17T15:50:18.368Z,23.92
2018-02-17T15:52:45.904Z,25.52
2018-02-17T15:55:13.429Z,24.23
2018-02-17T15:57:41.747Z,24.75
2018-02-17T16:00:09.275Z,24.42
2018-02-17T16:02:36.817Z,23.95
2018-02-17T16:05:05.127Z,25.83
2018-02-17T16:07:32.686Z,24.70
2018-02-17T16:10:00.235Z,24.30
2018-02-17T16:12:27.770Z,23.62
2018-02-17T16:14:56.156Z,24.90
2018-02-17T16:17:24.448Z,26.42
2018-02-17T16:19:51.985Z,22.65
2018-02-17T16:22:20.311Z,24.30
2018-02-17T16:24:47.864Z,25.27
2018-02-17T16:27:15.417Z,24.30
2018-02-17T16:29:42.979Z,26.67
2018-02-17T16:32:10.478Z,27.10
2018-02-17T16:34:38.028Z,28.00
2018-02-17T16:37:05.614Z,25.92
2018-02-17T16:39:33.885Z,25.92
2018-02-17T16:42:02.166Z,24.15
2018-02-17T16:44:30.455Z,26.30
2018-02-17T16:46:58.760Z,25.42
2018-02-17T16:49:26.310Z,25.42
2018-02-17T16:51:53.865Z,26.30
2018-02-17T16:54:21.408Z,25.30
2018-02-17T16:56:49.743Z,24.50
2018-02-17T16:59:17.287Z,25.15
2018-02-17T17:01:44.830Z,30.20
2018-02-17T17:04:12.376Z,27.83
2018-02-17T17:06:39.939Z,27.92
2018-02-17T17:09:07.492Z,28.75
2018-02-17T17:11:35.016Z,27.10
2018-02-17T17:14:02.552Z,24.63
2018-02-17T17:16:30.082Z,25.58
2018-02-17T17:18:57.642Z,25.88
2018-02-17T17:21:25.164Z,24.87
2018-02-17T17:23:53.487Z,26.17
2018-02-17T17:26:21.022Z,24.65
2018-02-17T17:28:48.571Z,24.45
2018-02-17T17:31:16.067Z,26.02
2018-02-17T17:33:43.604Z,27.13
2018-02-17T17:36:11.111Z,26.00
2018-02-17T17:38:38.679Z,21.77
2018-02-17T17:41:06.977Z,26.00
2018-02-17T17:43:35.253Z,24.77
2018-02-17T17:46:03.559Z,24.05
2018-02-17T17:48:31.055Z,22.83
2018-02-17T17:50:58.572Z,26.37
2018-02-17T17:53:26.109Z,22.90
2018-02-17T17:55:54.387Z,23.25
2018-02-17T17:58:22.656Z,25.30
2018-02-17T18:00:50.977Z,23.92
2018-02-17T18:03:18.512Z,23.70
2018-02-17T18:05:46.008Z,23.58
2018-02-17T18:08:13.549Z,26.30
2018-02-17T18:10:41.066Z,29.33
2018-02-17T18:13:09.366Z,29.33
2018-02-17T18:15:36.867Z,25.12
2018-02-17T18:18:04.392Z,24.30
2018-02-17T18:20:31.931Z,22.27
2018-02-17T18:22:59.473Z,21.65
2018-02-17T18:25:27.835Z,21.48
2018-02-17T18:27:55.337Z,21.35
2018-02-17T18:30:22.882Z,20.02
2018-02-17T18:32:50.440Z,19.85
2018-02-17T18:35:18.727Z,19.50
2018-02-17T18:37:46.263Z,19.65
2018-02-17T18:40:14.544Z,19.50
2018-02-17T18:42:42.845Z,23.42
2018-02-17T18:45:10.376Z,22.95
2018-02-17T18:47:38.647Z,22.37
2018-02-17T18:50:07.111Z,21.87
2018-02-17T18:52:34.768Z,21.90
2018-02-17T18:55:02.311Z,23.58
2018-02-17T18:57:29.882Z,22.85
2018-02-17T18:59:57.434Z,22.40
2018-02-17T19:02:24.948Z,21.10
2018-02-17T19:04:52.521Z,21.90
2018-02-17T19:07:20.152Z,26.62
2018-02-17T19:09:48.496Z,36.33
2018-02-17T19:12:16.050Z,31.25
2018-02-17T19:14:43.572Z,30.33
2018-02-17T19:17:11.104Z,25.17
2018-02-17T19:19:39.615Z,25.30
2018-02-17T19:22:07.245Z,25.45
2018-02-17T19:24:35.659Z,25.37
2018-02-17T19:27:03.175Z,26.90
2018-02-17T19:29:31.486Z,27.35
2018-02-17T19:31:59.032Z,24.63
2018-02-17T19:34:27.387Z,23.42
2018-02-17T19:36:56.331Z,21.92
2018-02-17T19:39:23.935Z,22.75
2018-02-17T19:41:52.350Z,23.98
2018-02-17T19:44:19.869Z,21.45
2018-02-17T19:46:47.743Z,23.25
2018-02-17T19:49:16.486Z,25.12
2018-02-17T19:51:44.389Z,25.23
2018-02-17T19:54:11.983Z,27.35
2018-02-17T19:56:39.798Z,24.35
2018-02-17T19:59:07.907Z,26.25
2018-02-17T20:01:35.493Z,24.48
2018-02-17T20:04:04.269Z,25.62
2018-02-17T20:06:31.973Z,26.65
2018-02-17T20:12:47.639Z,26.10
2018-02-17T20:15:15.148Z,25.73
2018-02-17T20:17:42.913Z,25.25
2018-02-17T20:20:45.905Z,25.10
2018-02-17T20:23:14.787Z,22.73
2018-02-17T20:25:42.507Z,24.83
2018-02-17T20:28:10.385Z,25.23
2018-02-17T20:30:38.059Z,26.25
2018-02-17T20:33:05.867Z,24.58
2018-02-17T20:35:34.448Z,25.80
2018-02-17T20:38:03.155Z,23.23
2018-02-17T20:40:32.155Z,24.48
2018-02-17T20:43:00.789Z,22.95
2018-02-17T20:45:29.061Z,23.27
2018-02-17T20:47:57.843Z,20.67
2018-02-17T20:50:26.537Z,19.80
2018-02-17T20:52:54.239Z,19.50
2018-02-17T20:55:21.880Z,19.42
2018-02-17T20:57:49.477Z,17.73
2018-02-17T21:00:17.064Z,19.50
2018-02-17T21:02:44.658Z,20.83
2018-02-17T21:05:12.170Z,20.95
2018-02-17T21:07:39.724Z,20.30
2018-02-17T21:10:07.259Z,21.70
2018-02-17T21:12:35.617Z,22.40
2018-02-17T21:15:03.165Z,22.13
2018-02-17T21:17:30.675Z,22.27
2018-02-17T21:19:58.990Z,21.30
2018-02-17T21:22:26.550Z,19.90
2018-02-17T21:28:04.655Z,20.88
2018-02-17T21:30:32.233Z,21.58
2018-02-17T21:32:59.780Z,19.67
2018-02-17T21:35:27.324Z,20.12
2018-02-17T21:37:54.882Z,19.42
2018-02-17T21:40:22.425Z,20.73
2018-02-17T21:42:50.691Z,20.20
2018-02-17T21:45:18.996Z,20.00
2018-02-17T21:47:46.560Z,21.40
2018-02-17T21:50:14.061Z,20.33
2018-02-17T21:52:41.650Z,22.35
2018-02-17T21:55:09.225Z,22.15
2018-02-17T21:57:36.765Z,21.73
2018-02-17T22:00:05.080Z,21.33
2018-02-17T22:02:32.598Z,21.08
2018-02-17T22:05:00.884Z,21.70
2018-02-17T22:07:29.148Z,20.45
2018-02-17T22:09:57.436Z,21.70
2018-02-17T22:12:25.741Z,19.98
2018-02-17T22:14:53.271Z,21.00
2018-02-17T22:17:21.562Z,20.90
2018-02-17T22:19:49.070Z,19.95
2018-02-17T22:22:16.594Z,21.30
2018-02-17T22:24:44.148Z,21.25
2018-02-17T22:27:12.443Z,21.12
2018-02-17T22:29:40.450Z,20.58
2018-02-17T22:32:08.003Z,21.02
2018-02-17T22:34:35.543Z,21.20
2018-02-17T22:37:03.097Z,20.65
2018-02-17T22:39:30.640Z,20.10
2018-02-17T22:41:58.290Z,21.12
2018-02-17T22:44:25.856Z,20.95
2018-02-17T22:46:53.357Z,19.15
2018-02-17T22:49:20.879Z,19.15
2018-02-17T22:51:49.036Z,18.27
2018-02-17T22:54:16.588Z,18.77
2018-02-17T22:56:44.132Z,20.00
2018-02-17T22:59:12.396Z,18.33
2018-02-17T23:01:39.916Z,18.02
2018-02-17T23:04:07.456Z,16.98
2018-02-17T23:06:34.947Z,18.90
2018-02-17T23:09:02.513Z,18.48
2018-02-17T23:11:30.043Z,17.55
2018-02-17T23:13:57.555Z,19.37
2018-02-17T23:16:25.870Z,18.80
2018-02-17T23:18:54.180Z,18.77
2018-02-17T23:21:21.693Z,19.15
2018-02-17T23:23:49.195Z,18.87
2018-02-17T23:26:16.729Z,18.67
2018-02-17T23:28:44.259Z,16.87
2018-02-17T23:31:11.768Z,19.62
2018-02-17T23:33:39.287Z,18.00
2018-02-17T23:36:06.791Z,18.23
2018-02-17T23:38:34.339Z,18.45
2018-02-17T23:41:01.872Z,21.65
2018-02-17T23:43:29.372Z,26.02
2018-02-17T23:45:56.872Z,22.02
2018-02-17T23:48:24.399Z,20.92
2018-02-17T23:50:51.892Z,20.75
2018-02-17T23:53:19.423Z,20.25
2018-02-17T23:55:47.704Z,20.12
2018-02-17T23:58:15.974Z,19.45
